createdAt,value
2018-07-24T00:01:22.075Z,20.30
2018-07-24T00:03:51.677Z,20.30
2018-07-24T00:06:21.151Z,20.30
2018-07-24T00:08:50.631Z,20.20
2018-07-24T00:11:20.196Z,20.20
2018-07-24T00:13:49.878Z,20.20
2018-07-24T00:16:19.473Z,20.20
2018-07-24T00:21:16.929Z,20.10
2018-07-24T00:23:45.367Z,20.10
2018-07-24T00:26:14.106Z,20.10
2018-07-24T00:28:43.585Z,20.00
2018-07-24T00:31:13.266Z,20.00
2018-07-24T00:33:42.800Z,20.00
2018-07-24T00:36:11.814Z,20.00
2018-07-24T00:38:41.279Z,20.00
2018-07-24T00:41:10.670Z,20.00
2018-07-24T00:43:40.255Z,20.00
2018-07-24T00:46:10.269Z,19.90
2018-07-24T00:48:39.970Z,19.90
2018-07-24T00:51:09.624Z,19.90
2018-07-24T00:53:38.969Z,19.90
2018-07-24T00:56:08.397Z,19.90
2018-07-24T00:58:37.882Z,20.00
2018-07-24T01:01:06.465Z,20.00
2018-07-24T01:03:35.795Z,20.00
2018-07-24T01:06:05.239Z,20.00
2018-07-24T01:08:35.062Z,19.90
2018-07-24T01:11:04.475Z,19.90
2018-07-24T01:16:03.032Z,19.80
2018-07-24T01:18:32.451Z,19.80
2018-07-24T01:21:02.367Z,19.70
2018-07-24T01:23:31.671Z,19.70
2018-07-24T01:26:02.097Z,19.70
2018-07-24T01:28:31.648Z,19.60
2018-07-24T01:31:01.423Z,19.50
2018-07-24T01:33:30.781Z,19.50
2018-07-24T01:36:00.183Z,19.50
2018-07-24T01:38:29.577Z,19.50
2018-07-24T01:40:59.000Z,19.40
2018-07-24T01:43:28.529Z,19.40
2018-07-24T01:45:57.871Z,19.40
2018-07-24T01:48:27.334Z,19.40
2018-07-24T01:50:56.657Z,19.40
2018-07-24T01:53:26.103Z,19.50
2018-07-24T01:55:55.620Z,19.40
2018-07-24T01:58:25.061Z,19.40
2018-07-24T02:00:54.687Z,19.40
2018-07-24T02:05:53.361Z,19.40
2018-07-24T02:08:22.689Z,19.40
2018-07-24T02:10:51.980Z,19.40
2018-07-24T02:13:21.474Z,19.30
2018-07-24T02:15:50.774Z,19.30
2018-07-24T02:18:20.355Z,19.30
2018-07-24T02:23:24.416Z,19.20
2018-07-24T02:25:54.025Z,19.10
2018-07-24T02:28:23.463Z,19.20
2018-07-24T02:30:53.153Z,19.10
2018-07-24T02:33:22.737Z,19.10
2018-07-24T02:35:52.260Z,19.00
2018-07-24T02:38:21.768Z,19.00
2018-07-24T02:40:51.216Z,18.90
2018-07-24T02:43:20.596Z,18.90
2018-07-24T02:45:50.137Z,18.90
2018-07-24T02:48:19.582Z,18.90
2018-07-24T02:50:49.092Z,18.90
2018-07-24T02:53:18.845Z,18.90
2018-07-24T02:55:48.787Z,18.90
2018-07-24T02:58:18.080Z,18.90
2018-07-24T03:00:47.856Z,18.90
2018-07-24T03:03:17.214Z,18.90
2018-07-24T03:05:46.872Z,18.90
2018-07-24T03:08:16.426Z,18.90
2018-07-24T03:10:45.903Z,18.90
2018-07-24T03:13:15.447Z,18.90
2018-07-24T03:15:44.865Z,18.80
2018-07-24T03:18:14.186Z,18.80
2018-07-24T03:20:43.914Z,18.80
2018-07-24T03:23:13.311Z,18.80
2018-07-24T03:25:42.742Z,18.80
2018-07-24T03:28:12.116Z,18.80
2018-07-24T03:30:41.502Z,18.80
2018-07-24T03:33:11.150Z,18.80
2018-07-24T03:35:40.689Z,18.80
2018-07-24T03:38:10.083Z,18.80
2018-07-24T03:40:39.400Z,18.70
2018-07-24T03:43:08.931Z,18.70
2018-07-24T03:45:38.296Z,18.70
2018-07-24T03:48:07.834Z,18.60
2018-07-24T03:50:37.422Z,18.60
2018-07-24T03:53:06.886Z,18.60
2018-07-24T03:55:36.368Z,18.60
2018-07-24T03:58:05.933Z,18.60
2018-07-24T04:00:35.600Z,18.70
2018-07-24T04:03:04.946Z,18.70
2018-07-24T04:05:34.264Z,18.70
2018-07-24T04:08:03.696Z,18.70
2018-07-24T04:10:33.045Z,18.70
2018-07-24T04:13:02.439Z,18.70
2018-07-24T04:15:31.994Z,18.80
2018-07-24T04:18:01.542Z,18.80
2018-07-24T04:20:31.090Z,19.10
2018-07-24T04:23:00.347Z,19.70
2018-07-24T04:25:29.639Z,20.40
2018-07-24T04:27:59.086Z,21.30
2018-07-24T04:30:28.457Z,22.20
2018-07-24T04:32:58.833Z,22.80
2018-07-24T04:35:28.167Z,23.50
2018-07-24T04:37:57.521Z,24.00
2018-07-24T04:40:26.928Z,24.90
2018-07-24T04:42:56.494Z,25.60
2018-07-24T04:45:25.990Z,26.40
2018-07-24T04:47:55.612Z,26.60
2018-07-24T04:50:25.250Z,27.10
2018-07-24T04:52:54.659Z,27.30
2018-07-24T04:55:24.280Z,27.20
2018-07-24T04:57:53.624Z,27.20
2018-07-24T05:00:23.075Z,27.50
2018-07-24T05:02:52.382Z,27.90
2018-07-24T05:05:21.886Z,28.50
2018-07-24T05:07:51.504Z,28.50
2018-07-24T05:10:20.907Z,28.60
2018-07-24T05:12:50.609Z,28.90
2018-07-24T05:15:20.604Z,29.60
2018-07-24T05:17:50.445Z,30.30
2018-07-24T05:20:19.965Z,30.40
2018-07-24T05:22:49.622Z,30.60
2018-07-24T05:25:19.187Z,30.80
2018-07-24T05:27:48.881Z,30.80
2018-07-24T05:30:18.887Z,30.70
2018-07-24T05:35:17.315Z,31.00
2018-07-24T05:37:46.668Z,31.30
2018-07-24T05:42:45.774Z,32.30
2018-07-24T05:45:15.138Z,32.40
2018-07-24T05:47:44.614Z,32.80
2018-07-24T05:50:14.040Z,33.40
2018-07-24T05:52:43.563Z,33.60
2018-07-24T05:55:13.131Z,34.20
2018-07-24T05:57:42.416Z,34.30
2018-07-24T06:00:11.947Z,34.90
2018-07-24T06:02:41.454Z,35.30
2018-07-24T06:05:10.947Z,35.80
2018-07-24T06:07:40.361Z,36.50
2018-07-24T06:10:09.756Z,36.90
2018-07-24T06:12:39.375Z,37.30
2018-07-24T06:15:09.323Z,37.40
2018-07-24T06:17:38.808Z,37.40
2018-07-24T06:20:09.673Z,38.10
2018-07-24T06:22:38.966Z,38.40
2018-07-24T06:25:08.412Z,38.50
2018-07-24T06:27:37.756Z,38.80
2018-07-24T06:30:07.620Z,39.20
2018-07-24T06:32:37.061Z,38.70
2018-07-24T06:35:06.463Z,38.40
2018-07-24T06:40:04.747Z,38.20
2018-07-24T06:42:34.023Z,38.60
2018-07-24T06:45:03.485Z,39.30
2018-07-24T06:47:32.889Z,39.50
2018-07-24T06:50:02.235Z,40.10
2018-07-24T06:52:31.559Z,40.80
2018-07-24T06:55:00.994Z,41.70
2018-07-24T06:57:30.399Z,42.00
2018-07-24T06:59:59.836Z,42.20
2018-07-24T07:02:29.596Z,42.30
2018-07-24T07:04:59.018Z,42.10
2018-07-24T07:07:28.402Z,41.80
2018-07-24T07:09:57.858Z,42.20
2018-07-24T07:12:27.317Z,42.50
2018-07-24T07:14:56.675Z,42.60
2018-07-24T07:17:26.326Z,43.40
2018-07-24T07:19:56.152Z,43.20
2018-07-24T07:22:25.947Z,43.00
2018-07-24T07:24:55.298Z,42.90
2018-07-24T07:27:24.735Z,42.70
2018-07-24T07:29:54.031Z,42.90
2018-07-24T07:32:23.419Z,43.00
2018-07-24T07:34:53.365Z,43.30
2018-07-24T07:37:22.815Z,43.40
2018-07-24T07:39:52.254Z,43.70
2018-07-24T07:42:21.833Z,44.40
2018-07-24T07:44:51.702Z,45.10
2018-07-24T07:47:21.503Z,44.60
2018-07-24T07:49:51.284Z,44.90
2018-07-24T07:52:20.911Z,45.10
2018-07-24T07:54:50.982Z,44.70
2018-07-24T07:57:20.551Z,45.10
2018-07-24T07:59:51.137Z,45.70
2018-07-24T08:02:20.574Z,46.50
2018-07-24T08:04:50.163Z,47.10
2018-07-24T08:07:19.524Z,46.80
2018-07-24T08:09:48.847Z,46.20
2018-07-24T08:12:18.223Z,46.00
2018-07-24T08:14:47.636Z,45.60
2018-07-24T08:17:16.966Z,45.30
2018-07-24T08:19:46.495Z,45.50
2018-07-24T08:22:15.904Z,45.20
2018-07-24T08:24:45.192Z,44.80
2018-07-24T08:27:14.547Z,45.00
2018-07-24T08:29:43.912Z,44.70
2018-07-24T08:32:13.252Z,45.60
2018-07-24T08:34:42.634Z,46.20
2018-07-24T08:37:12.067Z,46.40
2018-07-24T08:39:41.459Z,46.30
2018-07-24T08:42:10.908Z,46.40
2018-07-24T08:44:40.281Z,46.90
2018-07-24T08:47:09.788Z,47.20
2018-07-24T08:49:39.345Z,47.30
2018-07-24T08:54:38.167Z,47.30
2018-07-24T08:59:36.152Z,46.90
2018-07-24T09:02:05.643Z,47.10
2018-07-24T09:04:35.184Z,46.50
2018-07-24T09:07:04.529Z,46.40
2018-07-24T09:09:33.879Z,46.60
2018-07-24T09:12:03.356Z,46.40
2018-07-24T09:17:02.139Z,46.50
2018-07-24T09:19:31.699Z,45.30
2018-07-24T09:22:01.038Z,44.90
2018-07-24T09:24:30.908Z,44.80
2018-07-24T09:27:00.405Z,44.60
2018-07-24T09:29:30.075Z,44.30
2018-07-24T09:31:59.546Z,44.80
2018-07-24T09:34:28.973Z,45.60
2018-07-24T09:36:58.387Z,45.20
2018-07-24T09:39:27.731Z,45.20
2018-07-24T09:41:57.290Z,44.40
2018-07-24T09:44:26.650Z,43.40
2018-07-24T09:46:55.949Z,43.00
2018-07-24T09:49:25.255Z,42.90
2018-07-24T09:51:54.730Z,43.10
2018-07-24T09:54:24.127Z,43.10
2018-07-24T09:56:53.543Z,42.70
2018-07-24T09:59:22.905Z,42.70
2018-07-24T10:01:52.238Z,42.90
2018-07-24T10:04:21.551Z,43.20
2018-07-24T10:06:50.854Z,43.70
2018-07-24T10:09:20.455Z,44.30
2018-07-24T10:11:49.860Z,43.90
2018-07-24T10:14:19.216Z,43.40
2018-07-24T10:16:48.817Z,43.20
2018-07-24T10:19:18.116Z,43.00
2018-07-24T10:21:54.083Z,43.10
2018-07-24T10:24:23.533Z,43.50
2018-07-24T10:26:52.900Z,43.20
2018-07-24T10:29:22.280Z,43.50
2018-07-24T10:31:51.643Z,43.60
2018-07-24T10:34:21.144Z,43.10
2018-07-24T10:36:50.474Z,43.30
2018-07-24T10:39:19.780Z,43.50
2018-07-24T10:41:49.114Z,43.20
2018-07-24T10:44:18.403Z,43.20
2018-07-24T10:46:47.770Z,42.70
2018-07-24T10:49:17.256Z,43.30
2018-07-24T10:51:46.559Z,42.90
2018-07-24T10:54:15.942Z,42.60
2018-07-24T10:56:45.395Z,41.80
2018-07-24T10:59:14.690Z,41.80
2018-07-24T11:02:50.664Z,41.10
2018-07-24T11:05:20.235Z,41.10
2018-07-24T11:07:49.819Z,41.00
2018-07-24T11:10:37.079Z,40.10
2018-07-24T11:32:16.654Z,40.10
2018-07-24T11:34:46.086Z,40.10
2018-07-24T11:37:15.483Z,39.50
2018-07-24T11:39:44.824Z,39.20
2018-07-24T11:42:14.164Z,39.00
2018-07-24T11:44:43.521Z,39.00
2018-07-24T11:47:13.118Z,38.50
2018-07-24T11:49:42.415Z,37.90
2018-07-24T11:52:11.914Z,37.90
2018-07-24T11:54:41.488Z,38.30
2018-07-24T13:16:34.162Z,35.90
2018-07-24T13:19:03.635Z,35.90
2018-07-24T13:21:32.901Z,35.90
2018-07-24T13:24:02.304Z,35.60
2018-07-24T13:26:31.762Z,35.50
2018-07-24T13:29:01.396Z,35.10
2018-07-24T13:31:30.743Z,34.80
2018-07-24T13:34:00.036Z,34.90
2018-07-24T13:36:29.395Z,35.10
2018-07-24T13:38:58.765Z,35.00
2018-07-24T13:41:28.103Z,35.20
2018-07-24T13:43:57.578Z,35.50
2018-07-24T13:46:26.892Z,35.50
2018-07-24T13:48:56.321Z,35.40
2018-07-24T13:51:25.658Z,35.40
2018-07-24T13:53:56.255Z,35.20
2018-07-24T13:56:25.786Z,35.30
2018-07-24T13:58:55.331Z,35.20
2018-07-24T14:01:25.050Z,35.40
2018-07-24T14:03:54.347Z,35.30
2018-07-24T14:06:25.119Z,35.30
2018-07-24T14:08:54.443Z,35.40
2018-07-24T14:11:23.909Z,35.30
2018-07-24T14:13:53.426Z,35.20
2018-07-24T14:16:23.230Z,35.20
2018-07-24T14:18:52.727Z,35.10
2018-07-24T14:21:22.347Z,35.10
2018-07-24T14:23:52.488Z,34.50
2018-07-24T14:26:22.253Z,34.10
2018-07-24T14:28:51.683Z,34.00
2018-07-24T14:31:21.124Z,33.70
2018-07-24T14:33:50.487Z,33.40
2018-07-24T14:36:19.917Z,33.30
2018-07-24T14:38:49.609Z,33.10
2018-07-24T14:41:18.948Z,33.00
2018-07-24T14:46:17.392Z,33.20
2018-07-24T14:48:46.796Z,33.30
2018-07-24T14:51:16.202Z,33.20
2018-07-24T14:53:45.713Z,33.30
2018-07-24T14:56:15.041Z,33.50
2018-07-24T14:58:44.439Z,33.70
2018-07-24T15:01:13.880Z,33.80
2018-07-24T15:03:43.232Z,33.90
2018-07-24T15:06:12.579Z,34.10
2018-07-24T15:08:42.159Z,34.20
2018-07-24T15:11:11.511Z,34.40
2018-07-24T15:13:40.929Z,34.40
2018-07-24T15:16:10.590Z,34.50
2018-07-24T15:18:40.068Z,34.50
2018-07-24T15:21:09.502Z,34.50
2018-07-24T15:23:39.139Z,34.30
2018-07-24T15:26:08.780Z,34.30
2018-07-24T15:28:38.181Z,34.40
2018-07-24T15:31:07.780Z,34.30
2018-07-24T15:33:37.234Z,34.40
2018-07-24T15:36:06.663Z,34.40
2018-07-24T15:38:36.288Z,34.50
2018-07-24T15:41:05.945Z,34.40
2018-07-24T15:43:35.495Z,34.30
2018-07-24T15:46:04.928Z,34.30
2018-07-24T15:48:34.311Z,34.20
2018-07-24T15:51:03.923Z,34.00
2018-07-24T15:53:33.354Z,33.90
2018-07-24T15:56:02.885Z,33.80
2018-07-24T15:58:32.222Z,33.80
2018-07-24T16:01:01.700Z,33.80
2018-07-24T16:03:31.244Z,33.80
2018-07-24T16:06:00.761Z,33.80
2018-07-24T16:08:30.202Z,33.80
2018-07-24T16:10:59.715Z,33.80
2018-07-24T16:13:29.226Z,33.80
2018-07-24T16:15:58.943Z,33.80
2018-07-24T16:18:28.453Z,33.70
2018-07-24T16:20:58.105Z,33.70
2018-07-24T16:23:27.541Z,33.60
2018-07-24T16:25:56.960Z,33.70
2018-07-24T16:28:26.280Z,33.60
2018-07-24T16:30:55.779Z,33.50
2018-07-24T16:33:25.350Z,33.40
2018-07-24T16:35:54.738Z,33.30
2018-07-24T16:38:24.321Z,33.30
2018-07-24T16:40:53.659Z,33.20
2018-07-24T16:43:23.243Z,33.20
2018-07-24T16:45:52.603Z,33.10
2018-07-24T16:48:22.171Z,33.10
2018-07-24T16:50:54.518Z,33.10
2018-07-24T16:53:24.041Z,33.00
2018-07-24T16:55:53.688Z,33.00
2018-07-24T16:58:23.423Z,33.00
2018-07-24T17:03:22.103Z,32.90
2018-07-24T17:05:51.680Z,32.90
2018-07-24T17:08:21.603Z,32.90
2018-07-24T17:10:51.098Z,32.80
2018-07-24T17:13:20.636Z,32.80
2018-07-24T17:15:50.142Z,32.70
2018-07-24T17:18:19.578Z,32.70
2018-07-24T17:20:49.261Z,32.60
2018-07-24T17:23:18.763Z,32.60
2018-07-24T17:25:48.150Z,32.50
2018-07-24T17:28:17.687Z,32.40
2018-07-24T17:30:47.168Z,32.40
2018-07-24T17:33:16.600Z,32.40
2018-07-24T17:38:15.125Z,32.20
2018-07-24T17:40:44.620Z,32.20
2018-07-24T17:43:14.210Z,32.10
2018-07-24T17:45:43.620Z,32.10
2018-07-24T17:48:13.024Z,32.00
2018-07-24T17:50:42.320Z,31.90
2018-07-24T17:55:40.863Z,31.80
2018-07-24T17:58:10.203Z,31.80
2018-07-24T18:03:08.541Z,31.70
2018-07-24T18:05:37.984Z,31.50
2018-07-24T18:08:07.365Z,31.40
2018-07-24T18:10:36.686Z,31.40
2018-07-24T18:13:06.390Z,31.30
2018-07-24T18:15:35.759Z,31.30
2018-07-24T18:18:05.134Z,31.20
2018-07-24T18:20:34.464Z,31.10
2018-07-24T18:23:03.919Z,31.10
2018-07-24T18:25:33.247Z,31.00
2018-07-24T18:28:02.647Z,30.90
2018-07-24T18:30:32.896Z,30.80
2018-07-24T18:33:02.733Z,30.70
2018-07-24T18:35:32.186Z,30.60
2018-07-24T18:38:02.483Z,30.50
2018-07-24T18:40:32.291Z,30.40
2018-07-24T18:43:01.758Z,30.30
2018-07-24T18:45:31.241Z,30.30
2018-07-24T18:48:00.838Z,30.20
2018-07-24T18:50:30.314Z,30.10
2018-07-24T18:52:59.799Z,30.00
2018-07-24T18:55:29.548Z,29.90
2018-07-24T18:57:59.060Z,29.90
2018-07-24T19:02:57.708Z,29.70
2018-07-24T19:05:27.388Z,29.70
2018-07-24T19:07:56.864Z,29.60
2018-07-24T19:10:26.546Z,29.50
2018-07-24T19:12:56.188Z,29.50
2018-07-24T19:15:26.052Z,29.50
2018-07-24T19:17:55.684Z,29.40
2018-07-24T19:22:54.350Z,29.30
2018-07-24T19:25:23.899Z,29.20
2018-07-24T19:30:22.594Z,29.10
2018-07-24T19:35:21.265Z,28.90
2018-07-24T19:37:50.769Z,28.80
2018-07-24T19:40:20.436Z,28.70
2018-07-24T19:42:50.143Z,28.70
2018-07-24T19:45:19.642Z,28.60
2018-07-24T19:47:49.075Z,28.50
2018-07-24T19:50:18.815Z,28.50
2018-07-24T19:52:48.247Z,28.40
2018-07-24T19:55:17.828Z,28.40
2018-07-24T19:57:47.343Z,28.30
2018-07-24T20:00:17.159Z,28.20
2018-07-24T20:02:46.795Z,28.20
2018-07-24T20:05:16.314Z,28.10
2018-07-24T20:07:46.069Z,28.00
2018-07-24T20:10:15.900Z,27.90
2018-07-24T20:12:45.320Z,27.90
2018-07-24T20:15:18.448Z,27.80
2018-07-24T20:17:49.119Z,27.70
2018-07-24T20:20:18.622Z,27.60
2018-07-24T20:22:48.273Z,27.50
2018-07-24T20:25:17.691Z,27.40
2018-07-24T20:27:47.150Z,27.40
2018-07-24T20:32:45.676Z,27.20
2018-07-24T20:35:15.369Z,27.10
2018-07-24T20:37:45.127Z,27.10
2018-07-24T20:40:14.689Z,27.00
2018-07-24T20:42:44.487Z,27.00
2018-07-24T20:45:13.991Z,26.90
2018-07-24T20:50:12.390Z,26.90
2018-07-24T20:55:10.888Z,26.80
2018-07-24T20:57:40.367Z,26.80
2018-07-24T21:00:09.919Z,26.70
2018-07-24T21:02:39.552Z,26.70
2018-07-24T21:05:09.059Z,26.60
2018-07-24T21:07:38.737Z,26.50
2018-07-24T21:10:13.478Z,26.50
2018-07-24T21:12:43.731Z,26.50
2018-07-24T21:15:13.107Z,26.40
2018-07-24T21:17:42.473Z,26.30
2018-07-24T21:20:12.082Z,26.20
2018-07-24T21:22:41.551Z,26.10
2018-07-24T21:25:11.207Z,26.00
2018-07-24T21:27:40.647Z,25.90
2018-07-24T21:30:10.481Z,25.80
2018-07-24T21:32:39.769Z,25.70
2018-07-24T21:35:09.431Z,25.60
2018-07-24T21:37:38.895Z,25.50
2018-07-24T21:40:08.376Z,25.40
2018-07-24T21:42:38.032Z,25.30
2018-07-24T21:45:07.438Z,25.30
2018-07-24T21:47:36.882Z,25.20
2018-07-24T21:50:06.374Z,25.20
2018-07-24T21:52:35.909Z,25.10
2018-07-24T21:55:05.277Z,25.10
2018-07-24T21:57:34.711Z,25.00
2018-07-24T22:00:05.747Z,25.00
2018-07-24T22:02:35.219Z,24.90
2018-07-24T22:05:04.792Z,24.80
2018-07-24T22:07:35.136Z,24.70
2018-07-24T22:10:09.048Z,24.70
2018-07-24T22:12:38.624Z,24.60
2018-07-24T22:15:18.165Z,24.50
2018-07-24T22:17:47.834Z,24.50
2018-07-24T22:20:18.155Z,24.50
2018-07-24T22:22:47.730Z,24.40
2018-07-24T22:25:17.487Z,24.40
2018-07-24T22:27:47.093Z,24.30
2018-07-24T22:30:17.119Z,24.30
2018-07-24T22:32:46.570Z,24.20
2018-07-24T22:35:15.923Z,24.10
2018-07-24T22:37:45.288Z,24.10
2018-07-24T22:40:15.063Z,24.00
2018-07-24T22:42:44.520Z,23.90
2018-07-24T22:45:14.191Z,23.90
2018-07-24T22:47:43.672Z,23.90
2018-07-24T22:50:13.461Z,23.90
2018-07-24T22:52:43.333Z,23.90
2018-07-24T22:55:13.143Z,23.90
2018-07-24T22:57:42.790Z,23.80
2018-07-24T23:00:12.437Z,23.80
2018-07-24T23:02:42.108Z,23.70
2018-07-24T23:05:11.748Z,23.70
2018-07-24T23:07:41.418Z,23.60
2018-07-24T23:10:10.938Z,23.60
2018-07-24T23:12:40.460Z,23.50
2018-07-24T23:15:09.930Z,23.40
2018-07-24T23:17:39.415Z,23.30
2018-07-24T23:20:08.986Z,23.20
2018-07-24T23:22:38.385Z,23.10
2018-07-24T23:25:07.914Z,23.10
2018-07-24T23:27:37.251Z,23.10
2018-07-24T23:30:06.739Z,23.10
2018-07-24T23:32:36.194Z,23.00
2018-07-24T23:35:05.783Z,23.00
2018-07-24T23:37:35.306Z,23.00
2018-07-24T23:40:04.949Z,22.90
2018-07-24T23:42:34.433Z,22.90
2018-07-24T23:45:04.003Z,22.80
2018-07-24T23:47:33.263Z,22.80
2018-07-24T23:50:02.722Z,22.70
2018-07-24T23:52:32.533Z,22.70
2018-07-24T23:55:02.206Z,22.70
2018-07-24T23:57:31.748Z,22.60
